Buenaventura, Gerardo Tobar López Airport (SKBU)

NameGerardo Tobar López Airport
CityBuenaventura
CountryColombia
ICAOSKBU
IATABUN
Altitude15 m
CoordinatesGoogle Map
Live Air TrafficLiveATC.net
METARSKBU 141800Z VRB03KT 8000 VCSH SCT020 BKN040 29/25 A2974 RMK VCSHA/E
2019-09-14 18:00:00 Wind: North (0°) 1.54 m/s - Visibility: 8000 m - Weather: Vicinity Showers - Temperature: 29 °C - Dew point: 25 °C - Humidity: 79% - Pressure: 1007.11 hPa

Sorry, no flights used the airport in this database.